Time;durP1;ratioP1;P1;durP2;ratioP2;P2;SDS_P1;SDS_P2;PMS_P1;PMS_P2;Temp;Humidity;BMP_temperature;BMP_pressure;BME280_temperature;BME280_humidity;BME280_pressure;Samples;Min_cycle;Max_cycle;Signal;HPM_P1;HPM_P2
2022/02/26 00:00:26;;;;;;;;;;;1.40;99.90;;;;;;4996674;28;19926;-74
2022/02/26 00:02:53;;;;;;;;;;;1.40;99.90;;;;;;5030150;28;19969;-74
2022/02/26 00:05:19;;;;;;;;;;;1.40;99.90;;;;;;5010088;28;19981;-74
2022/02/26 00:07:46;;;;;;;;;;;1.40;99.90;;;;;;4997695;28;19933;-75
2022/02/26 00:10:13;;;;;;;;;;;1.40;99.90;;;;;;5007963;28;19925;-74
2022/02/26 00:12:41;;;;;;;;;;;1.40;99.90;;;;;;5009051;28;19933;-74
2022/02/26 00:15:09;;;;;;;;;;;1.40;99.90;;;;;;5002348;28;19933;-75
2022/02/26 00:17:36;;;;;;;;;;;1.30;99.90;;;;;;5009064;28;19980;-75
2022/02/26 00:20:04;;;;;;;;;;;1.30;99.90;;;;;;5008667;28;19983;-75
2022/02/26 00:22:31;;;;;;;;;;;1.30;99.90;;;;;;5002206;28;19940;-75
2022/02/26 00:24:58;;;;;;;;;;;1.30;99.90;;;;;;5005979;28;19987;-75
2022/02/26 00:27:24;;;;;;;;;;;1.20;99.90;;;;;;5001577;28;19961;-75
2022/02/26 00:29:53;;;;;;;;;;;1.20;99.90;;;;;;5006077;28;19973;-75
2022/02/26 00:32:19;;;;;;;;;;;1.20;99.90;;;;;;4996782;28;19925;-75
2022/02/26 00:34:46;;;;;;;;;;;1.20;99.90;;;;;;5003036;28;20270;-76
2022/02/26 00:37:14;;;;;;;;;;;1.10;99.90;;;;;;5006927;28;19925;-75
2022/02/26 00:39:40;;;;;;;;;;;1.20;99.90;;;;;;5009753;28;19926;-75
2022/02/26 00:42:07;;;;;;;;;;;1.00;99.90;;;;;;5009314;28;19926;-75
2022/02/26 00:44:34;;;;;;;;;;;0.90;99.90;;;;;;5010616;28;19932;-75
2022/02/26 00:47:02;;;;;;;;;;;0.90;99.90;;;;;;5011982;28;19968;-76
2022/02/26 00:52:13;;;;;;;;;;;0.90;99.90;;;;;;5004661;28;20021;-74
2022/02/26 00:54:39;;;;;;;;;;;1.00;99.90;;;;;;5009636;28;19933;-75
2022/02/26 00:57:06;;;;;;;;;;;1.00;99.90;;;;;;5004917;28;19925;-75
2022/02/26 00:59:33;;;;;;;;;;;1.00;99.90;;;;;;5006416;28;19978;-75
2022/02/26 01:01:59;;;;;;;;;;;1.00;99.90;;;;;;5000562;28;19926;-75
2022/02/26 01:04:27;;;;;;;;;;;0.90;99.90;;;;;;5004811;28;20008;-75
2022/02/26 01:06:54;;;;;;;;;;;0.90;99.90;;;;;;5007328;28;19926;-75
2022/02/26 01:09:21;;;;;;;;;;;0.90;99.90;;;;;;4997933;28;19925;-75
2022/02/26 01:11:47;;;;;;;;;;;0.90;99.90;;;;;;5004794;28;20421;-75
2022/02/26 01:14:14;;;;;;;;;;;0.90;99.90;;;;;;5005188;28;19934;-74
2022/02/26 01:16:41;;;;;;;;;;;0.90;99.90;;;;;;4995388;28;19930;-74
2022/02/26 01:19:07;;;;;;;;;;;0.90;99.90;;;;;;5007528;28;19937;-75
2022/02/26 01:21:35;;;;;;;;;;;0.80;99.90;;;;;;5008296;28;20295;-75
2022/02/26 01:24:02;;;;;;;;;;;0.80;99.90;;;;;;5002683;28;19932;-74
2022/02/26 01:26:29;;;;;;;;;;;0.80;99.90;;;;;;5005624;28;19932;-74
2022/02/26 01:28:56;;;;;;;;;;;0.60;99.90;;;;;;5003864;28;19925;-74
2022/02/26 01:31:22;;;;;;;;;;;0.50;99.90;;;;;;5008445;28;20304;-74
2022/02/26 01:33:49;;;;;;;;;;;0.40;99.90;;;;;;5005574;28;19925;-74
2022/02/26 01:36:16;;;;;;;;;;;0.30;99.90;;;;;;4997326;28;19935;-74
2022/02/26 01:38:44;;;;;;;;;;;0.20;99.90;;;;;;5000755;28;20025;-75
2022/02/26 01:41:10;;;;;;;;;;;0.20;99.90;;;;;;4995707;28;20375;-75
2022/02/26 01:43:37;;;;;;;;;;;0.10;99.90;;;;;;5004391;28;19926;-75
2022/02/26 01:46:05;;;;;;;;;;;0.10;99.90;;;;;;4999539;28;19930;-75
2022/02/26 01:48:32;;;;;;;;;;;0.10;99.90;;;;;;5004021;28;20408;-75
2022/02/26 01:50:59;;;;;;;;;;;0.10;99.90;;;;;;5005765;28;20425;-75
2022/02/26 01:53:26;;;;;;;;;;;0.10;99.90;;;;;;5001154;28;19933;-75
2022/02/26 01:55:54;;;;;;;;;;;0.20;99.90;;;;;;5000924;28;19931;-75
2022/02/26 01:58:21;;;;;;;;;;;0.40;99.90;;;;;;5003655;28;20296;-75
2022/02/26 02:00:47;;;;;;;;;;;0.40;99.90;;;;;;5002727;28;19925;-75
2022/02/26 02:03:14;;;;;;;;;;;0.40;99.90;;;;;;5007886;28;20396;-75
2022/02/26 02:05:43;;;;;;;;;;;0.40;99.90;;;;;;5003009;28;20351;-75
2022/02/26 02:08:10;;;;;;;;;;;0.30;99.90;;;;;;5002872;28;19933;-74
2022/02/26 02:10:37;;;;;;;;;;;0.30;99.90;;;;;;5001887;28;20301;-75
2022/02/26 02:13:05;;;;;;;;;;;0.20;99.90;;;;;;5003070;28;19936;-75
2022/02/26 02:15:33;;;;;;;;;;;0.30;99.90;;;;;;5006121;28;19926;-75
2022/02/26 02:17:59;;;;;;;;;;;0.30;99.90;;;;;;5003474;28;20330;-74
2022/02/26 02:20:26;;;;;;;;;;;0.40;99.90;;;;;;4995069;28;19932;-74
2022/02/26 02:22:54;;;;;;;;;;;0.40;99.90;;;;;;5007483;28;19933;-75
2022/02/26 02:25:24;;;;;;;;;;;0.40;99.90;;;;;;5003440;28;19952;-75
2022/02/26 02:27:51;;;;;;;;;;;0.40;99.90;;;;;;4999880;28;19925;-73
2022/02/26 02:30:18;;;;;;;;;;;0.40;99.90;;;;;;4999715;28;19925;-74
2022/02/26 02:32:45;;;;;;;;;;;0.40;99.90;;;;;;5006278;28;19955;-75
2022/02/26 02:35:23;;;;;;;;;;;0.40;99.90;;;;;;5006087;28;19932;-74
2022/02/26 02:37:49;;;;;;;;;;;0.40;99.90;;;;;;5006909;28;19926;-72
2022/02/26 02:40:17;;;;;;;;;;;0.40;99.90;;;;;;4996011;28;20347;-76
2022/02/26 02:42:44;;;;;;;;;;;0.30;99.90;;;;;;5007312;28;20399;-73
2022/02/26 02:45:11;;;;;;;;;;;0.30;99.90;;;;;;5004104;28;19964;-71
2022/02/26 02:47:38;;;;;;;;;;;0.20;99.90;;;;;;5004564;28;20024;-72
2022/02/26 02:50:05;;;;;;;;;;;0.20;99.90;;;;;;5002301;28;20016;-71
2022/02/26 02:52:31;;;;;;;;;;;0.20;99.90;;;;;;4994689;28;19934;-71
2022/02/26 02:54:58;;;;;;;;;;;0.20;99.90;;;;;;5009028;28;19926;-72
2022/02/26 02:57:26;;;;;;;;;;;0.10;99.90;;;;;;4996347;28;19926;-72
2022/02/26 02:59:53;;;;;;;;;;;0.00;99.90;;;;;;5003094;28;19932;-72
2022/02/26 03:02:19;;;;;;;;;;;0.00;99.90;;;;;;5007011;28;20296;-72
2022/02/26 03:04:46;;;;;;;;;;;0.10;99.90;;;;;;5001771;28;19929;-72
2022/02/26 03:07:12;;;;;;;;;;;0.00;99.90;;;;;;4993958;28;19925;-73
2022/02/26 03:09:41;;;;;;;;;;;0.00;99.90;;;;;;5004048;28;19926;-72
2022/02/26 03:12:10;;;;;;;;;;;0.00;99.90;;;;;;5000637;28;19965;-71
2022/02/26 03:14:38;;;;;;;;;;;0.00;99.90;;;;;;5002094;28;19961;-74
2022/02/26 03:17:06;;;;;;;;;;;0.00;99.90;;;;;;4998687;28;19925;-72
2022/02/26 03:19:32;;;;;;;;;;;0.00;99.90;;;;;;5002164;28;23605;-73
2022/02/26 03:21:59;;;;;;;;;;;-0.20;99.90;;;;;;4999429;28;19971;-73
2022/02/26 03:24:30;;;;;;;;;;;-0.20;99.90;;;;;;5005405;28;19939;-72
2022/02/26 03:26:57;;;;;;;;;;;-0.20;99.90;;;;;;5005007;28;19969;-73
2022/02/26 03:29:24;;;;;;;;;;;-0.20;99.90;;;;;;5005922;28;20046;-73
2022/02/26 03:31:52;;;;;;;;;;;-0.30;99.90;;;;;;5003989;28;20009;-73
2022/02/26 03:34:20;;;;;;;;;;;-0.30;99.90;;;;;;5001208;28;19932;-75
2022/02/26 03:36:51;;;;;;;;;;;-0.30;99.90;;;;;;4999737;28;19933;-73
2022/02/26 03:39:18;;;;;;;;;;;-0.40;99.90;;;;;;5008054;28;19980;-73
2022/02/26 03:41:44;;;;;;;;;;;-0.40;99.90;;;;;;5008794;28;20023;-72
2022/02/26 03:44:11;;;;;;;;;;;-0.40;99.90;;;;;;5008870;28;19932;-72
2022/02/26 03:46:38;;;;;;;;;;;-0.40;99.90;;;;;;5007058;28;19955;-72
2022/02/26 03:49:06;;;;;;;;;;;-0.30;99.90;;;;;;5005679;28;20411;-72
2022/02/26 03:51:34;;;;;;;;;;;-0.30;99.90;;;;;;5007928;28;19932;-72
2022/02/26 03:54:01;;;;;;;;;;;-0.30;99.90;;;;;;5007851;28;20044;-73
2022/02/26 03:56:28;;;;;;;;;;;-0.50;99.90;;;;;;5005115;28;19925;-73
2022/02/26 03:58:55;;;;;;;;;;;-0.60;99.90;;;;;;5007661;28;22132;-72
2022/02/26 04:01:22;;;;;;;;;;;-0.70;99.90;;;;;;5003553;28;19932;-72
2022/02/26 04:03:49;;;;;;;;;;;-0.50;99.90;;;;;;5003607;28;19931;-73
2022/02/26 04:06:17;;;;;;;;;;;-0.60;99.90;;;;;;4998769;28;19934;-73
2022/02/26 04:08:44;;;;;;;;;;;-0.60;99.90;;;;;;5005908;28;20339;-73
2022/02/26 04:11:11;;;;;;;;;;;-0.50;99.90;;;;;;5002887;28;19936;-73
2022/02/26 04:13:37;;;;;;;;;;;-0.60;99.90;;;;;;5005220;28;19933;-73
2022/02/26 04:16:04;;;;;;;;;;;-0.60;99.90;;;;;;5004783;28;19933;-72
2022/02/26 04:18:31;;;;;;;;;;;-0.60;99.90;;;;;;5003333;28;19925;-73
2022/02/26 04:20:58;;;;;;;;;;;-0.50;99.90;;;;;;5006146;28;19926;-72
2022/02/26 04:23:26;;;;;;;;;;;-0.50;99.90;;;;;;5005312;28;19925;-73
2022/02/26 04:25:52;;;;;;;;;;;-0.60;99.90;;;;;;5012398;28;19991;-73
2022/02/26 04:28:19;;;;;;;;;;;-0.80;99.90;;;;;;5002682;28;20683;-73
2022/02/26 04:30:46;;;;;;;;;;;-0.80;99.90;;;;;;5003259;28;19925;-72
2022/02/26 04:33:14;;;;;;;;;;;-0.90;99.90;;;;;;5005844;28;19932;-72
2022/02/26 04:35:41;;;;;;;;;;;-0.80;99.90;;;;;;5006833;28;19969;-73
2022/02/26 04:38:07;;;;;;;;;;;-0.80;99.90;;;;;;5001757;28;19936;-72
2022/02/26 04:40:35;;;;;;;;;;;-0.80;99.90;;;;;;5003612;28;20368;-73
2022/02/26 04:43:02;;;;;;;;;;;-0.80;99.90;;;;;;5002341;28;20310;-72
2022/02/26 04:45:29;;;;;;;;;;;-0.80;99.90;;;;;;5001770;28;19926;-72
2022/02/26 04:47:56;;;;;;;;;;;-0.80;99.90;;;;;;4998615;28;19936;-72
2022/02/26 04:50:22;;;;;;;;;;;-0.90;99.90;;;;;;4997260;28;19926;-72
2022/02/26 04:52:49;;;;;;;;;;;-0.90;99.90;;;;;;5005470;28;20303;-72
2022/02/26 04:55:16;;;;;;;;;;;-0.90;99.90;;;;;;5005879;28;19926;-72
2022/02/26 04:57:44;;;;;;;;;;;-1.00;99.90;;;;;;5004338;28;19929;-72
2022/02/26 05:00:11;;;;;;;;;;;-0.90;99.90;;;;;;4999417;28;19926;-72
2022/02/26 05:02:38;;;;;;;;;;;-0.90;99.90;;;;;;5002369;28;20303;-72
2022/02/26 05:05:05;;;;;;;;;;;-0.90;99.90;;;;;;5002496;28;20021;-71
2022/02/26 05:07:32;;;;;;;;;;;-0.80;99.90;;;;;;5002409;28;19936;-72
2022/02/26 05:09:59;;;;;;;;;;;-0.70;99.90;;;;;;5000142;28;19934;-71
2022/02/26 05:12:25;;;;;;;;;;;-0.70;99.90;;;;;;4999047;28;19933;-70
2022/02/26 05:14:54;;;;;;;;;;;-0.70;99.90;;;;;;5002837;28;19951;-70
2022/02/26 05:17:21;;;;;;;;;;;-0.80;99.90;;;;;;5002360;28;19978;-72
2022/02/26 05:19:48;;;;;;;;;;;-0.90;99.90;;;;;;4998613;28;19934;-71
2022/02/26 05:22:14;;;;;;;;;;;-0.90;99.90;;;;;;5004200;28;19952;-71
2022/02/26 05:24:41;;;;;;;;;;;-0.90;99.90;;;;;;5008071;28;19929;-74
2022/02/26 05:27:08;;;;;;;;;;;-0.80;99.90;;;;;;5004164;28;19925;-72
2022/02/26 05:29:34;;;;;;;;;;;-0.80;99.90;;;;;;5003991;28;19987;-72
2022/02/26 05:32:03;;;;;;;;;;;-0.60;99.90;;;;;;5003743;28;19939;-72
2022/02/26 05:34:29;;;;;;;;;;;-0.80;99.90;;;;;;5003875;28;20034;-72
2022/02/26 05:36:56;;;;;;;;;;;-0.80;99.90;;;;;;5005260;28;20288;-73
2022/02/26 05:39:23;;;;;;;;;;;-0.80;99.90;;;;;;4999386;28;19926;-71
2022/02/26 05:41:50;;;;;;;;;;;-0.90;99.90;;;;;;5001401;28;19933;-72
2022/02/26 05:44:17;;;;;;;;;;;-0.90;99.90;;;;;;5006391;28;19934;-73
2022/02/26 05:46:44;;;;;;;;;;;-0.80;99.90;;;;;;5002147;28;20021;-73
2022/02/26 05:49:12;;;;;;;;;;;-0.80;99.90;;;;;;5003135;28;19994;-73
2022/02/26 05:51:39;;;;;;;;;;;-0.80;99.90;;;;;;5001704;28;19933;-73
2022/02/26 05:54:06;;;;;;;;;;;-0.90;99.90;;;;;;5002030;28;19926;-71
2022/02/26 05:56:32;;;;;;;;;;;-1.00;99.90;;;;;;5004030;28;19925;-72
2022/02/26 05:58:59;;;;;;;;;;;-1.00;99.90;;;;;;5001476;28;20402;-73
2022/02/26 06:01:26;;;;;;;;;;;-1.00;99.90;;;;;;5000173;28;19930;-73
2022/02/26 06:03:53;;;;;;;;;;;-1.10;99.90;;;;;;5004038;28;19926;-73
2022/02/26 06:06:21;;;;;;;;;;;-1.00;99.90;;;;;;5002428;28;20368;-72
2022/02/26 06:08:48;;;;;;;;;;;-1.00;99.90;;;;;;5005531;28;19933;-73
2022/02/26 06:11:14;;;;;;;;;;;-0.90;99.90;;;;;;4999531;28;19930;-72
2022/02/26 06:13:41;;;;;;;;;;;-0.90;99.90;;;;;;5001665;28;19932;-72
2022/02/26 06:16:10;;;;;;;;;;;-0.90;99.90;;;;;;5003019;28;19926;-72
2022/02/26 06:18:36;;;;;;;;;;;-0.90;99.90;;;;;;5001426;28;20549;-72
2022/02/26 06:21:03;;;;;;;;;;;-0.90;99.90;;;;;;5002397;28;20367;-72
2022/02/26 06:23:32;;;;;;;;;;;-0.90;99.90;;;;;;5001791;28;20308;-73
2022/02/26 06:25:58;;;;;;;;;;;-0.90;99.90;;;;;;5001379;28;20393;-72
2022/02/26 06:28:25;;;;;;;;;;;-0.90;99.90;;;;;;4999791;28;19926;-69
2022/02/26 06:30:52;;;;;;;;;;;-0.90;99.90;;;;;;5002875;28;19933;-69
2022/02/26 06:33:18;;;;;;;;;;;-0.90;99.90;;;;;;5002030;28;20403;-69
2022/02/26 06:35:45;;;;;;;;;;;-0.90;99.90;;;;;;5004960;28;19925;-68
2022/02/26 06:38:12;;;;;;;;;;;-0.90;99.90;;;;;;4999190;28;19932;-69
2022/02/26 06:40:40;;;;;;;;;;;-0.80;99.90;;;;;;5005696;28;19932;-69
2022/02/26 06:43:07;;;;;;;;;;;-0.80;99.90;;;;;;5003878;28;19925;-69
2022/02/26 06:45:34;;;;;;;;;;;-0.70;99.90;;;;;;4999106;28;19971;-70
2022/02/26 06:48:01;;;;;;;;;;;-0.70;99.90;;;;;;5000196;28;19933;-71
2022/02/26 06:50:27;;;;;;;;;;;-0.70;99.90;;;;;;4999124;28;20316;-72
2022/02/26 06:52:54;;;;;;;;;;;-0.70;99.90;;;;;;5004032;28;20283;-71
2022/02/26 06:55:21;;;;;;;;;;;-0.60;99.90;;;;;;5002533;28;19937;-72
2022/02/26 06:57:49;;;;;;;;;;;-0.50;99.90;;;;;;5001114;28;20319;-72
2022/02/26 07:00:16;;;;;;;;;;;-0.50;99.90;;;;;;5004521;28;19929;-72
2022/02/26 07:02:42;;;;;;;;;;;-0.40;99.90;;;;;;4997395;28;19940;-71
2022/02/26 07:05:10;;;;;;;;;;;-0.40;99.90;;;;;;5003101;28;19931;-72
2022/02/26 07:07:36;;;;;;;;;;;-0.30;99.90;;;;;;5001615;28;19933;-71
2022/02/26 07:10:03;;;;;;;;;;;-0.30;99.90;;;;;;5000280;28;19925;-72
2022/02/26 07:12:30;;;;;;;;;;;-0.20;99.90;;;;;;4995647;28;19936;-72
2022/02/26 07:14:58;;;;;;;;;;;-0.20;99.90;;;;;;5001431;28;20380;-72
2022/02/26 07:17:24;;;;;;;;;;;-0.20;99.90;;;;;;5000584;28;19934;-73
2022/02/26 07:19:51;;;;;;;;;;;-0.20;99.90;;;;;;5001998;28;19932;-72
2022/02/26 07:22:18;;;;;;;;;;;-0.30;99.90;;;;;;5000566;28;20376;-73
2022/02/26 07:24:44;;;;;;;;;;;-0.30;99.90;;;;;;4998896;28;19933;-72
2022/02/26 07:27:13;;;;;;;;;;;-0.20;99.90;;;;;;5003205;28;19982;-73
2022/02/26 07:29:40;;;;;;;;;;;-0.10;99.90;;;;;;5010899;28;19930;-74
2022/02/26 07:32:09;;;;;;;;;;;0.10;99.90;;;;;;5005320;28;19961;-72
2022/02/26 07:34:36;;;;;;;;;;;0.20;99.90;;;;;;5003798;28;20002;-73
2022/02/26 07:37:03;;;;;;;;;;;0.40;99.90;;;;;;5003617;28;19940;-72
2022/02/26 07:39:32;;;;;;;;;;;0.50;99.90;;;;;;4996965;28;19942;-72
2022/02/26 07:42:02;;;;;;;;;;;0.60;99.90;;;;;;4999327;28;20014;-71
2022/02/26 07:44:29;;;;;;;;;;;0.80;99.90;;;;;;5001818;28;20024;-72
2022/02/26 07:46:56;;;;;;;;;;;0.90;99.90;;;;;;4995711;28;19944;-72
2022/02/26 07:49:24;;;;;;;;;;;1.00;99.90;;;;;;4996412;28;19986;-73
2022/02/26 07:51:50;;;;;;;;;;;1.30;99.90;;;;;;4991844;28;19945;-74
2022/02/26 07:54:17;;;;;;;;;;;1.40;99.90;;;;;;5000576;28;19956;-74
2022/02/26 07:56:44;;;;;;;;;;;1.40;99.90;;;;;;5004962;28;20016;-74
2022/02/26 07:59:11;;;;;;;;;;;1.40;99.90;;;;;;4996601;28;19929;-73
2022/02/26 08:01:38;;;;;;;;;;;1.80;99.90;;;;;;4994646;28;19932;-74
2022/02/26 08:04:07;;;;;;;;;;;1.90;99.90;;;;;;5000384;28;19968;-74
2022/02/26 08:06:35;;;;;;;;;;;2.00;99.90;;;;;;5002827;28;19933;-74
2022/02/26 08:09:05;;;;;;;;;;;2.20;99.90;;;;;;5003636;28;19971;-73
2022/02/26 08:11:32;;;;;;;;;;;2.20;99.90;;;;;;4998295;28;19932;-73
2022/02/26 08:13:59;;;;;;;;;;;2.50;99.90;;;;;;4998990;28;19933;-74
2022/02/26 08:16:26;;;;;;;;;;;2.80;99.90;;;;;;4996913;28;19971;-73
2022/02/26 08:18:53;;;;;;;;;;;4.90;99.90;;;;;;5000064;28;19925;-74
2022/02/26 08:21:21;;;;;;;;;;;8.00;99.90;;;;;;4997164;28;20425;-73
2022/02/26 08:23:49;;;;;;;;;;;9.60;99.90;;;;;;4998520;28;20005;-74
2022/02/26 08:26:16;;;;;;;;;;;10.20;95.10;;;;;;5000532;28;20012;-73
2022/02/26 08:28:43;;;;;;;;;;;9.90;85.10;;;;;;4997730;28;19934;-73
2022/02/26 08:31:10;;;;;;;;;;;9.10;80.00;;;;;;4998201;28;19929;-73
2022/02/26 08:33:37;;;;;;;;;;;8.40;82.00;;;;;;4999432;28;19926;-73
2022/02/26 08:36:04;;;;;;;;;;;8.50;85.50;;;;;;4999054;28;19987;-73
2022/02/26 08:38:33;;;;;;;;;;;9.20;86.40;;;;;;5000026;28;19925;-74
2022/02/26 08:41:01;;;;;;;;;;;9.80;83.00;;;;;;5001480;28;19926;-76
2022/02/26 08:43:28;;;;;;;;;;;10.40;77.60;;;;;;5001426;28;19961;-76
2022/02/26 08:45:54;;;;;;;;;;;11.10;73.00;;;;;;4995914;28;19934;-74
2022/02/26 08:48:21;;;;;;;;;;;12.10;68.20;;;;;;4999389;28;19934;-73
2022/02/26 08:50:48;;;;;;;;;;;13.10;57.70;;;;;;5001798;28;19925;-74
2022/02/26 08:53:15;;;;;;;;;;;13.60;54.20;;;;;;5003300;28;19940;-72
2022/02/26 08:55:42;;;;;;;;;;;14.10;50.70;;;;;;5002169;28;19940;-79
2022/02/26 08:58:10;;;;;;;;;;;14.60;46.10;;;;;;4998984;28;20221;-71
2022/02/26 09:00:37;;;;;;;;;;;14.90;43.60;;;;;;5001551;28;19926;-76
2022/02/26 09:03:04;;;;;;;;;;;14.50;43.70;;;;;;5000949;28;20457;-71
2022/02/26 09:05:31;;;;;;;;;;;14.80;42.10;;;;;;4996469;28;20372;-71
2022/02/26 09:07:58;;;;;;;;;;;14.70;42.10;;;;;;5001475;28;19971;-71
2022/02/26 09:10:25;;;;;;;;;;;15.00;41.20;;;;;;4999992;28;19934;-71
2022/02/26 09:12:52;;;;;;;;;;;15.10;40.40;;;;;;4998047;28;22352;-70
2022/02/26 09:15:20;;;;;;;;;;;15.30;38.60;;;;;;4998399;28;19932;-70
2022/02/26 09:17:47;;;;;;;;;;;15.70;38.90;;;;;;5003690;28;19932;-72
2022/02/26 09:20:14;;;;;;;;;;;15.70;37.30;;;;;;4999786;28;20412;-73
2022/02/26 09:22:41;;;;;;;;;;;15.10;37.10;;;;;;5002386;28;19929;-72
2022/02/26 09:25:08;;;;;;;;;;;14.30;39.80;;;;;;5001804;28;20277;-71
2022/02/26 09:27:35;;;;;;;;;;;14.40;40.10;;;;;;5003990;28;20410;-71
2022/02/26 09:30:04;;;;;;;;;;;15.00;40.00;;;;;;5001075;28;19973;-73
2022/02/26 09:32:33;;;;;;;;;;;14.90;38.60;;;;;;4995525;28;20148;-72
2022/02/26 09:35:03;;;;;;;;;;;15.30;38.60;;;;;;4999140;28;19926;-71
2022/02/26 09:37:30;;;;;;;;;;;15.30;37.00;;;;;;5002173;28;19933;-71
2022/02/26 09:39:58;;;;;;;;;;;15.20;37.00;;;;;;4999078;28;20372;-72
2022/02/26 09:42:27;;;;;;;;;;;15.10;37.50;;;;;;5001641;28;19979;-73
2022/02/26 09:44:54;;;;;;;;;;;15.30;36.80;;;;;;4993938;28;19925;-72
2022/02/26 09:47:22;;;;;;;;;;;15.10;36.50;;;;;;4997562;28;20021;-72
2022/02/26 09:49:50;;;;;;;;;;;13.60;38.90;;;;;;5001589;28;19925;-72
2022/02/26 09:52:23;;;;;;;;;;;11.40;43.10;;;;;;4997456;28;20036;-71
2022/02/26 09:54:53;;;;;;;;;;;9.80;49.60;;;;;;4999242;28;19934;-73
2022/02/26 09:57:21;;;;;;;;;;;8.90;54.10;;;;;;4993439;28;19968;-72
2022/02/26 09:59:48;;;;;;;;;;;8.60;58.00;;;;;;4993774;28;20372;-72
2022/02/26 10:02:15;;;;;;;;;;;8.20;61.30;;;;;;4995244;28;19940;-73
2022/02/26 10:04:54;;;;;;;;;;;8.10;67.00;;;;;;4998225;28;20008;-71
2022/02/26 10:07:24;;;;;;;;;;;8.00;72.30;;;;;;4999250;28;19934;-73
2022/02/26 10:09:52;;;;;;;;;;;7.90;75.60;;;;;;5001791;28;19930;-73
2022/02/26 10:12:19;;;;;;;;;;;7.80;76.60;;;;;;5008808;28;20460;-74
2022/02/26 10:14:47;;;;;;;;;;;7.70;77.30;;;;;;5002887;28;19925;-74
2022/02/26 10:17:23;;;;;;;;;;;7.70;79.40;;;;;;5009116;28;20069;-74
2022/02/26 10:19:50;;;;;;;;;;;7.70;78.80;;;;;;5007706;28;19926;-74
2022/02/26 10:22:18;;;;;;;;;;;7.50;79.00;;;;;;5006571;28;19996;-74
2022/02/26 10:24:48;;;;;;;;;;;7.60;81.10;;;;;;5000762;28;20155;-74
2022/02/26 10:27:15;;;;;;;;;;;7.60;83.10;;;;;;5000547;28;20012;-75
2022/02/26 10:29:41;;;;;;;;;;;7.70;83.50;;;;;;5000107;28;20012;-74
2022/02/26 10:32:09;;;;;;;;;;;7.70;84.50;;;;;;5006479;28;19932;-75
2022/02/26 10:34:37;;;;;;;;;;;7.80;84.20;;;;;;4991446;28;19926;-73
2022/02/26 10:37:05;;;;;;;;;;;7.70;84.00;;;;;;5000478;28;19964;-72
2022/02/26 10:39:34;;;;;;;;;;;7.60;84.30;;;;;;4996969;28;19932;-73
2022/02/26 10:42:01;;;;;;;;;;;7.30;84.90;;;;;;4992657;28;20011;-72
2022/02/26 10:44:28;;;;;;;;;;;7.30;86.00;;;;;;4991613;28;19932;-72
2022/02/26 10:47:05;;;;;;;;;;;7.30;87.30;;;;;;4992768;28;20262;-73
2022/02/26 10:49:35;;;;;;;;;;;7.40;89.00;;;;;;4999202;28;19929;-74
2022/02/26 10:52:07;;;;;;;;;;;7.40;88.80;;;;;;4993702;28;19926;-73
2022/02/26 10:54:51;;;;;;;;;;;7.40;87.40;;;;;;4996925;28;20307;-76
2022/02/26 10:57:18;;;;;;;;;;;7.70;87.50;;;;;;5000498;28;20328;-72
2022/02/26 10:59:45;;;;;;;;;;;7.60;86.90;;;;;;5004532;28;19975;-73
2022/02/26 11:02:13;;;;;;;;;;;7.50;85.40;;;;;;4998892;28;19934;-73
2022/02/26 11:04:40;;;;;;;;;;;7.50;86.00;;;;;;4996971;28;19934;-77
2022/02/26 11:07:08;;;;;;;;;;;7.60;85.70;;;;;;5009695;28;19924;-75
2022/02/26 11:09:40;;;;;;;;;;;7.70;85.20;;;;;;4999975;28;20368;-75
2022/02/26 11:12:07;;;;;;;;;;;7.80;85.80;;;;;;4998436;28;19926;-74
2022/02/26 11:14:36;;;;;;;;;;;7.70;86.10;;;;;;5000064;28;19926;-74
2022/02/26 11:17:05;;;;;;;;;;;7.80;86.00;;;;;;4997761;28;20341;-73
2022/02/26 11:19:32;;;;;;;;;;;7.90;85.80;;;;;;5001496;28;19972;-72
2022/02/26 11:21:59;;;;;;;;;;;7.90;85.00;;;;;;5004484;28;19925;-72
2022/02/26 11:24:27;;;;;;;;;;;8.00;84.60;;;;;;5001166;28;20599;-70
2022/02/26 11:26:55;;;;;;;;;;;7.90;83.10;;;;;;4999704;28;19940;-75
2022/02/26 11:29:23;;;;;;;;;;;7.70;83.80;;;;;;5002069;28;20356;-72
2022/02/26 11:31:52;;;;;;;;;;;7.60;84.50;;;;;;5004889;28;20269;-74
2022/02/26 11:34:23;;;;;;;;;;;7.70;83.50;;;;;;5004747;28;20353;-71
2022/02/26 11:36:51;;;;;;;;;;;7.80;82.80;;;;;;4994280;28;20048;-71
2022/02/26 11:39:22;;;;;;;;;;;7.80;82.40;;;;;;5003464;28;20329;-71
2022/02/26 11:41:49;;;;;;;;;;;7.70;81.80;;;;;;4998639;28;19925;-71
2022/02/26 11:44:33;;;;;;;;;;;7.80;82.00;;;;;;5002039;28;19933;-71
2022/02/26 11:47:13;;;;;;;;;;;7.90;81.90;;;;;;4996026;27;19971;-71
2022/02/26 11:49:54;;;;;;;;;;;8.10;80.40;;;;;;5004740;28;19925;-70
2022/02/26 11:52:35;;;;;;;;;;;8.10;80.40;;;;;;5000566;28;20322;-71
2022/02/26 11:55:02;;;;;;;;;;;7.90;78.60;;;;;;4998969;28;19930;-71
2022/02/26 11:57:30;;;;;;;;;;;7.80;80.20;;;;;;4996042;28;19932;-71
2022/02/26 12:00:09;;;;;;;;;;;7.90;79.30;;;;;;5009133;28;19925;-72
2022/02/26 12:02:38;;;;;;;;;;;8.00;79.10;;;;;;5004329;28;19940;-72
2022/02/26 12:05:05;;;;;;;;;;;8.10;80.20;;;;;;5010189;28;19930;-72
2022/02/26 12:07:33;;;;;;;;;;;8.10;78.60;;;;;;4999814;28;19980;-72
2022/02/26 12:10:01;;;;;;;;;;;8.20;78.20;;;;;;5007861;28;19978;-72
2022/02/26 12:12:32;;;;;;;;;;;8.20;78.40;;;;;;5007277;28;19929;-71
2022/02/26 12:14:59;;;;;;;;;;;8.30;77.80;;;;;;5007306;28;19934;-72
2022/02/26 12:17:25;;;;;;;;;;;8.20;77.50;;;;;;5002599;28;19969;-71
2022/02/26 12:19:54;;;;;;;;;;;7.80;78.60;;;;;;5003942;28;19941;-71
2022/02/26 12:22:22;;;;;;;;;;;7.70;77.60;;;;;;5007070;28;19925;-73
2022/02/26 12:24:49;;;;;;;;;;;7.60;79.50;;;;;;5005057;28;20016;-71
2022/02/26 12:27:16;;;;;;;;;;;7.60;79.00;;;;;;5006969;28;20270;-71
2022/02/26 12:29:51;;;;;;;;;;;7.90;78.80;;;;;;5007994;28;19965;-71
2022/02/26 12:32:18;;;;;;;;;;;8.00;76.40;;;;;;5009246;28;19926;-73
2022/02/26 12:34:49;;;;;;;;;;;7.90;76.90;;;;;;5001803;28;19985;-71
2022/02/26 12:37:21;;;;;;;;;;;8.20;77.00;;;;;;4997986;28;20425;-72
2022/02/26 12:39:52;;;;;;;;;;;8.30;74.20;;;;;;5000925;28;19925;-73
2022/02/26 12:42:19;;;;;;;;;;;7.80;76.60;;;;;;4995969;28;19933;-74
2022/02/26 12:44:46;;;;;;;;;;;8.00;77.30;;;;;;5006574;28;19925;-74
2022/02/26 12:47:13;;;;;;;;;;;8.10;75.80;;;;;;4998279;28;19965;-73
2022/02/26 12:49:40;;;;;;;;;;;8.20;74.40;;;;;;4999868;28;19926;-74
2022/02/26 12:52:07;;;;;;;;;;;7.90;73.30;;;;;;4998656;28;20044;-73
2022/02/26 12:54:36;;;;;;;;;;;8.10;73.80;;;;;;5000336;28;19925;-70
2022/02/26 12:57:03;;;;;;;;;;;8.00;73.40;;;;;;5007579;28;20015;-74
2022/02/26 12:59:30;;;;;;;;;;;8.20;73.00;;;;;;5002585;28;20347;-73
2022/02/26 13:01:58;;;;;;;;;;;8.20;75.70;;;;;;4998926;28;19969;-73
2022/02/26 13:04:28;;;;;;;;;;;8.10;72.40;;;;;;5004702;28;20032;-73
2022/02/26 13:06:55;;;;;;;;;;;8.10;72.30;;;;;;5001866;28;19933;-73
2022/02/26 13:09:22;;;;;;;;;;;8.30;69.50;;;;;;4995631;28;19937;-74
2022/02/26 13:11:50;;;;;;;;;;;8.40;70.10;;;;;;4993236;28;20356;-73
2022/02/26 13:14:18;;;;;;;;;;;8.60;70.30;;;;;;5006159;28;19932;-73
2022/02/26 13:16:52;;;;;;;;;;;8.90;68.60;;;;;;5003779;28;19925;-74
2022/02/26 13:19:19;;;;;;;;;;;9.00;63.80;;;;;;5001700;28;20340;-72
2022/02/26 13:21:46;;;;;;;;;;;9.10;62.80;;;;;;5001967;28;19972;-74
2022/02/26 13:24:13;;;;;;;;;;;9.00;61.00;;;;;;5002525;28;19933;-74
2022/02/26 13:26:40;;;;;;;;;;;9.00;63.50;;;;;;5003804;28;19932;-72
2022/02/26 13:29:13;;;;;;;;;;;9.00;60.10;;;;;;5003451;28;20036;-74
2022/02/26 13:31:40;;;;;;;;;;;8.70;60.80;;;;;;4999135;28;19943;-74
2022/02/26 13:34:15;;;;;;;;;;;8.70;59.70;;;;;;5006945;28;19933;-73
2022/02/26 13:36:42;;;;;;;;;;;8.80;56.90;;;;;;4999174;28;19929;-72
2022/02/26 13:39:09;;;;;;;;;;;8.90;57.80;;;;;;5004018;28;20001;-73
2022/02/26 13:41:38;;;;;;;;;;;9.00;58.20;;;;;;4994017;28;19929;-75
2022/02/26 13:44:07;;;;;;;;;;;9.00;56.10;;;;;;5000697;28;20501;-74
2022/02/26 13:46:37;;;;;;;;;;;9.10;56.80;;;;;;5003243;28;19987;-75
2022/02/26 13:49:04;;;;;;;;;;;8.70;56.80;;;;;;5002103;28;19979;-75
2022/02/26 13:51:32;;;;;;;;;;;8.80;56.60;;;;;;4998846;28;20344;-78
2022/02/26 13:54:17;;;;;;;;;;;8.70;56.70;;;;;;5001393;28;20425;-74
2022/02/26 13:56:44;;;;;;;;;;;9.00;56.40;;;;;;4977330;23;19981;-74
2022/02/26 13:59:13;;;;;;;;;;;9.20;56.60;;;;;;4938981;28;19930;-73
2022/02/26 14:01:52;;;;;;;;;;;9.20;55.00;;;;;;4942837;28;19930;-73
2022/02/26 14:04:23;;;;;;;;;;;9.50;55.60;;;;;;4939035;28;19927;-73
2022/02/26 14:06:51;;;;;;;;;;;9.30;55.40;;;;;;4942914;28;19934;-73
2022/02/26 14:09:18;;;;;;;;;;;9.10;56.60;;;;;;4944285;28;19932;-73
2022/02/26 14:11:51;;;;;;;;;;;9.00;56.60;;;;;;4959846;28;19934;-74
2022/02/26 14:14:26;;;;;;;;;;;9.20;55.40;;;;;;4942070;28;19934;-73
2022/02/26 14:16:58;;;;;;;;;;;9.30;54.90;;;;;;4943571;28;20492;-74
2022/02/26 14:19:27;;;;;;;;;;;9.50;54.90;;;;;;4943033;28;19945;-73
2022/02/26 14:21:55;;;;;;;;;;;9.60;54.30;;;;;;4945332;28;20381;-74
2022/02/26 14:24:23;;;;;;;;;;;9.10;53.50;;;;;;4941782;28;19930;-73
2022/02/26 14:26:51;;;;;;;;;;;9.10;54.80;;;;;;4943747;28;20660;-74
2022/02/26 14:29:26;;;;;;;;;;;9.10;54.90;;;;;;4942883;28;20421;-73
2022/02/26 14:31:58;;;;;;;;;;;9.00;53.40;;;;;;4944171;28;19945;-73